LRIA - IASI

Compiled: 17:21:46 on 16/08/2018

Latest METAR/SPECI Reports

METAR LRIA 161700Z 32009KT CAVOK 26/18 Q1015=

Previous reports

METAR LRIA 161630Z 32007KT CAVOK 27/17 Q1015=
METAR LRIA 161600Z 32007KT CAVOK 28/17 Q1015=
METAR LRIA 161530Z 32007KT 9999 FEW050TCU 29/17 Q1015=
METAR LRIA 161500Z 33006KT 9999 FEW050CB 29/17 Q1015=

Latest TAF report

TAF LRIA 161400Z 1615/1624 34008KT CAVOK=

Valid WARNINGS

No valid warnings for LRIA